createdAt,value
2023-05-20T00:03:45.211Z,3.80
2023-05-20T00:08:36.869Z,3.25
2023-05-20T00:13:28.604Z,3.80
2023-05-20T00:18:20.244Z,4.38
2023-05-20T00:23:11.943Z,6.03
2023-05-20T00:28:03.709Z,5.53
2023-05-20T00:32:55.531Z,6.03
2023-05-20T00:37:47.193Z,5.90
2023-05-20T00:42:38.864Z,4.72
2023-05-20T00:47:33.801Z,5.18
2023-05-20T00:52:25.830Z,6.40
2023-05-20T00:57:19.217Z,5.55
2023-05-20T01:02:11.483Z,5.95
2023-05-20T01:07:06.100Z,5.25
2023-05-20T01:12:07.102Z,5.38
2023-05-20T01:17:02.244Z,7.47
2023-05-20T01:21:55.553Z,7.15
2023-05-20T01:26:48.497Z,8.75
2023-05-20T01:31:40.479Z,8.85
2023-05-20T01:36:33.645Z,7.88
2023-05-20T01:41:27.434Z,10.20
2023-05-20T01:46:19.161Z,9.85
2023-05-20T01:51:11.172Z,10.05
2023-05-20T01:56:03.097Z,10.90
2023-05-20T02:00:54.828Z,9.73
2023-05-20T02:05:46.525Z,10.50
2023-05-20T02:10:38.208Z,9.55
2023-05-20T02:15:29.881Z,9.80
2023-05-20T02:20:21.600Z,9.25
2023-05-20T02:25:13.293Z,8.95
2023-05-20T02:30:05.645Z,7.43
2023-05-20T02:34:57.298Z,7.40
2023-05-20T02:39:48.908Z,7.65
2023-05-20T02:44:41.356Z,8.02
2023-05-20T02:49:33.019Z,8.13
2023-05-20T02:54:24.736Z,7.85
2023-05-20T02:59:16.455Z,8.75
2023-05-20T03:04:08.748Z,7.65
2023-05-20T03:09:00.424Z,9.32
2023-05-20T03:13:52.148Z,9.43
2023-05-20T03:18:43.936Z,9.23
2023-05-20T03:23:35.963Z,10.32
2023-05-20T03:28:27.639Z,10.18
2023-05-20T03:33:19.337Z,9.65
2023-05-20T03:38:11.024Z,9.63
2023-05-20T03:43:02.630Z,9.77
2023-05-20T03:47:54.379Z,10.63
2023-05-20T03:52:46.057Z,9.10
2023-05-20T03:57:37.945Z,9.98
2023-05-20T04:02:30.165Z,8.80
2023-05-20T04:07:22.001Z,8.23
2023-05-20T04:12:14.047Z,8.55
2023-05-20T04:17:06.762Z,8.98
2023-05-20T04:21:58.452Z,10.30
2023-05-20T04:26:50.197Z,10.77
2023-05-20T04:31:41.809Z,12.27
2023-05-20T04:36:34.790Z,12.30
2023-05-20T04:41:27.431Z,12.32
2023-05-20T04:46:20.588Z,10.85
2023-05-20T04:51:12.309Z,10.88
2023-05-20T04:56:04.145Z,10.75
2023-05-20T05:00:56.598Z,10.75
2023-05-20T05:05:48.611Z,9.93
2023-05-20T05:10:40.418Z,10.77
2023-05-20T05:15:32.343Z,9.38
2023-05-20T05:20:24.209Z,8.80
2023-05-20T05:25:16.511Z,8.65
2023-05-20T05:30:08.609Z,8.70
2023-05-20T05:35:00.290Z,7.68
2023-05-20T05:39:52.459Z,6.63
2023-05-20T05:44:44.705Z,8.13
2023-05-20T05:49:36.343Z,7.47
2023-05-20T05:54:27.998Z,5.85
2023-05-20T05:59:20.194Z,6.45
2023-05-20T06:04:11.907Z,5.47
2023-05-20T06:09:03.769Z,6.35
2023-05-20T06:13:55.710Z,6.57
2023-05-20T06:18:50.129Z,5.78
2023-05-20T06:23:41.810Z,6.10
2023-05-20T06:28:33.984Z,6.10
2023-05-20T06:33:27.236Z,5.30
2023-05-20T06:38:20.177Z,5.80
2023-05-20T06:43:11.849Z,5.13
2023-05-20T06:48:03.618Z,5.43
2023-05-20T06:52:55.449Z,5.65
2023-05-20T06:57:47.097Z,4.07
2023-05-20T07:02:38.870Z,3.80
2023-05-20T07:07:30.606Z,4.47
2023-05-20T07:12:22.195Z,3.47
2023-05-20T07:17:13.805Z,3.97
2023-05-20T07:22:05.836Z,3.95
2023-05-20T07:26:57.599Z,3.10
2023-05-20T07:31:49.304Z,2.90
2023-05-20T07:36:40.962Z,2.33
2023-05-20T07:41:32.769Z,2.67
2023-05-20T07:46:24.529Z,2.05
2023-05-20T07:51:16.344Z,3.17
2023-05-20T07:56:08.353Z,2.78
2023-05-20T08:01:00.001Z,2.60
2023-05-20T08:05:51.890Z,2.05
2023-05-20T08:10:43.505Z,2.55
2023-05-20T08:15:36.648Z,2.38
2023-05-20T08:20:29.697Z,2.20
2023-05-20T08:25:21.432Z,2.05
2023-05-20T08:30:13.734Z,2.92
2023-05-20T08:35:07.650Z,2.13
2023-05-20T08:39:59.293Z,2.13
2023-05-20T08:44:53.942Z,1.75
2023-05-20T08:49:46.173Z,1.55
2023-05-20T08:54:46.229Z,2.17
2023-05-20T08:59:37.942Z,2.45
2023-05-20T09:04:29.697Z,2.53
2023-05-20T09:09:21.417Z,2.63
2023-05-20T09:14:13.051Z,2.88
2023-05-20T09:19:07.485Z,2.80
2023-05-20T09:24:02.413Z,2.03
2023-05-20T09:28:56.150Z,2.30
2023-05-20T09:33:49.575Z,2.42
2023-05-20T09:38:41.715Z,2.67
2023-05-20T09:43:33.653Z,2.90
2023-05-20T09:48:26.026Z,3.50
2023-05-20T09:53:18.576Z,3.58
2023-05-20T09:58:14.792Z,2.35
2023-05-20T10:03:08.327Z,2.70
2023-05-20T10:08:29.642Z,3.40
2023-05-20T10:13:27.075Z,2.97
2023-05-20T10:18:30.105Z,3.08
2023-05-20T10:23:29.009Z,2.97
2023-05-20T10:28:33.151Z,2.47
2023-05-20T10:33:27.904Z,1.90
2023-05-20T10:38:20.851Z,2.13
2023-05-20T10:43:18.817Z,1.80
2023-05-20T10:48:30.348Z,1.55
2023-05-20T10:58:17.768Z,2.05
2023-05-20T11:03:10.153Z,1.70
2023-05-20T11:08:16.981Z,1.85
2023-05-20T11:13:18.246Z,2.15
2023-05-20T11:18:11.640Z,1.70
2023-05-20T11:23:03.650Z,2.20
2023-05-20T11:27:55.295Z,1.60
2023-05-20T11:32:59.528Z,2.20
2023-05-20T11:38:00.928Z,1.52
2023-05-20T11:43:00.260Z,1.33
2023-05-20T11:48:05.458Z,1.67
2023-05-20T11:52:58.884Z,2.03
2023-05-20T11:57:52.085Z,1.52
2023-05-20T12:02:44.730Z,1.40
2023-05-20T12:07:36.843Z,1.45
2023-05-20T12:12:28.484Z,1.40
2023-05-20T12:17:20.137Z,1.48
2023-05-20T12:22:11.788Z,1.17
2023-05-20T12:27:06.525Z,1.75
2023-05-20T12:31:58.246Z,1.30
2023-05-20T12:36:50.037Z,1.50
2023-05-20T12:41:42.448Z,1.27
2023-05-20T12:46:34.142Z,1.20
2023-05-20T12:51:26.104Z,1.60
2023-05-20T12:56:18.808Z,1.20
2023-05-20T13:01:10.618Z,1.70
2023-05-20T13:06:02.918Z,1.95
2023-05-20T13:10:54.539Z,1.80
2023-05-20T13:15:46.974Z,2.53
2023-05-20T13:20:38.997Z,2.78
2023-05-20T13:25:31.929Z,2.85
2023-05-20T13:30:23.509Z,2.80
2023-05-20T13:35:16.984Z,3.45
2023-05-20T13:40:09.472Z,3.00
2023-05-20T13:45:01.218Z,3.22
2023-05-20T13:49:53.075Z,2.40
2023-05-20T13:54:47.398Z,2.50
2023-05-20T13:59:39.867Z,1.85
2023-05-20T14:04:31.574Z,2.33
2023-05-20T14:09:23.277Z,2.53
2023-05-20T14:14:14.879Z,2.67
2023-05-20T14:19:08.927Z,2.10
2023-05-20T14:24:01.432Z,2.15
2023-05-20T14:28:53.145Z,3.00
2023-05-20T14:33:44.806Z,2.42
2023-05-20T14:38:37.216Z,2.92
2023-05-20T14:43:28.888Z,3.45
2023-05-20T14:48:20.746Z,3.70
2023-05-20T14:53:12.353Z,2.88
2023-05-20T14:58:04.194Z,3.50
2023-05-20T15:02:56.062Z,3.47
2023-05-20T15:07:47.782Z,2.70
2023-05-20T15:12:39.684Z,2.60
2023-05-20T15:17:31.507Z,2.35
2023-05-20T15:22:23.193Z,1.98
2023-05-20T15:27:14.977Z,2.63
2023-05-20T15:32:06.823Z,1.65
2023-05-20T15:36:58.464Z,2.20
2023-05-20T15:41:52.164Z,1.85
2023-05-20T15:46:44.872Z,2.55
2023-05-20T15:51:36.538Z,2.78
2023-05-20T15:56:29.531Z,1.85
2023-05-20T16:01:22.850Z,2.22
2023-05-20T16:06:14.656Z,2.72
2023-05-20T16:11:07.586Z,2.35
2023-05-20T16:16:00.031Z,1.85
2023-05-20T16:20:51.916Z,2.58
2023-05-20T16:25:43.689Z,1.67
2023-05-20T16:30:35.771Z,1.80
2023-05-20T16:35:27.972Z,1.92
2023-05-20T16:40:19.674Z,2.60
2023-05-20T16:45:12.502Z,1.70
2023-05-20T16:50:04.711Z,2.35
2023-05-20T16:54:58.665Z,2.03
2023-05-20T16:59:50.543Z,1.90
2023-05-20T17:04:43.396Z,2.35
2023-05-20T17:09:35.392Z,2.08
2023-05-20T17:14:27.063Z,1.73
2023-05-20T17:19:18.818Z,1.95
2023-05-20T17:24:10.603Z,2.10
2023-05-20T17:29:02.358Z,2.28
2023-05-20T17:33:54.095Z,2.35
2023-05-20T17:38:46.011Z,2.22
2023-05-20T17:43:37.645Z,3.08
2023-05-20T17:48:31.318Z,3.35
2023-05-20T17:53:22.990Z,6.20
2023-05-20T17:58:14.669Z,3.60
2023-05-20T18:03:06.557Z,3.22
2023-05-20T18:07:58.316Z,2.03
2023-05-20T18:12:50.201Z,1.60
2023-05-20T18:17:41.950Z,1.65
2023-05-20T18:22:33.684Z,1.95
2023-05-20T18:27:25.633Z,1.20
2023-05-20T18:32:17.556Z,1.40
2023-05-20T18:37:09.176Z,1.25
2023-05-20T18:42:01.022Z,0.90
2023-05-20T18:46:52.719Z,0.80
2023-05-20T18:51:44.379Z,0.80
2023-05-20T18:56:36.361Z,0.90
2023-05-20T19:01:29.421Z,0.90
2023-05-20T19:06:21.948Z,1.00
2023-05-20T19:11:13.684Z,0.88
2023-05-20T19:16:05.612Z,1.33
2023-05-20T19:20:57.274Z,0.90
2023-05-20T19:25:48.954Z,0.90
2023-05-20T19:30:40.749Z,0.90
2023-05-20T19:35:33.519Z,0.88
2023-05-20T19:40:25.619Z,0.80
2023-05-20T19:45:17.456Z,0.65
2023-05-20T19:50:10.475Z,0.95
2023-05-20T19:55:02.752Z,0.70
2023-05-20T19:59:54.396Z,0.80
2023-05-20T20:04:47.205Z,0.70
2023-05-20T20:09:38.775Z,0.45
2023-05-20T20:14:30.916Z,0.60
2023-05-20T20:19:23.064Z,0.60
2023-05-20T20:24:16.019Z,0.60
2023-05-20T20:29:08.170Z,0.70
2023-05-20T20:33:59.919Z,0.70
2023-05-20T20:38:51.523Z,0.70
2023-05-20T20:43:47.458Z,0.65
2023-05-20T20:48:39.065Z,0.68
2023-05-20T20:53:30.712Z,0.60
2023-05-20T20:58:22.778Z,0.85
2023-05-20T21:03:14.439Z,0.60
2023-05-20T21:08:08.450Z,0.60
2023-05-20T21:13:00.458Z,0.90
2023-05-20T21:17:52.589Z,0.60
2023-05-20T21:22:44.331Z,0.80
2023-05-20T21:27:36.096Z,0.60
2023-05-20T21:32:27.851Z,0.60
2023-05-20T21:37:19.525Z,0.60
2023-05-20T21:42:11.263Z,0.50
2023-05-20T21:47:02.962Z,0.63
2023-05-20T21:51:54.669Z,0.47
2023-05-20T21:56:46.237Z,0.50
2023-05-20T22:01:37.891Z,0.50
2023-05-20T22:06:29.522Z,0.50
2023-05-20T22:11:21.669Z,0.55
2023-05-20T22:16:14.327Z,0.50
2023-05-20T22:21:06.930Z,0.43
2023-05-20T22:25:58.589Z,0.50
2023-05-20T22:30:50.259Z,0.60
2023-05-20T22:35:41.973Z,0.52
2023-05-20T22:40:33.781Z,0.70
2023-05-20T22:45:25.466Z,0.68
2023-05-20T22:50:18.221Z,0.60
2023-05-20T22:55:11.753Z,0.40
2023-05-20T23:00:04.997Z,0.60
2023-05-20T23:04:56.672Z,0.80
2023-05-20T23:09:48.715Z,0.60
2023-05-20T23:14:40.556Z,0.70
2023-05-20T23:19:32.232Z,0.60
2023-05-20T23:24:23.990Z,0.50
2023-05-20T23:29:15.670Z,1.00
2023-05-20T23:34:07.533Z,0.70
2023-05-20T23:38:59.268Z,0.40
2023-05-20T23:43:51.158Z,0.73
2023-05-20T23:48:45.005Z,0.40
2023-05-20T23:53:36.749Z,0.50
2023-05-20T23:58:28.363Z,0.68
